createdAt,value
2019-02-02T00:00:21.367Z,95989.51
2019-02-02T00:03:09.146Z,95992.70
2019-02-02T00:05:56.774Z,95994.01
2019-02-02T00:08:44.198Z,95986.83
2019-02-02T00:11:31.930Z,95974.03
2019-02-02T00:14:19.662Z,95971.11
2019-02-02T00:17:06.982Z,95977.67
2019-02-02T00:19:55.865Z,95985.71
2019-02-02T00:22:43.277Z,95973.90
2019-02-02T00:25:30.905Z,95982.54
2019-02-02T00:28:18.530Z,95981.29
2019-02-02T00:31:06.258Z,95978.61
2019-02-02T00:33:53.999Z,95966.99
2019-02-02T00:36:41.308Z,95967.41
2019-02-02T00:39:29.153Z,95979.09
2019-02-02T00:42:16.670Z,95989.16
2019-02-02T00:45:07.696Z,95983.41
2019-02-02T00:47:55.121Z,95981.72
2019-02-02T00:50:43.191Z,95990.56
2019-02-02T00:53:31.078Z,95998.82
2019-02-02T00:56:18.813Z,95994.77
2019-02-02T00:59:06.547Z,95991.30
2019-02-02T01:01:54.076Z,96000.05
2019-02-02T01:04:41.590Z,96012.69
2019-02-02T01:07:28.603Z,96012.67
2019-02-02T01:10:19.373Z,96006.84
2019-02-02T01:13:06.829Z,96014.57
2019-02-02T01:15:54.050Z,96018.19
2019-02-02T01:18:41.473Z,96009.45
2019-02-02T01:21:29.304Z,96011.89
2019-02-02T01:24:16.504Z,96009.29
2019-02-02T01:27:04.156Z,96011.06
2019-02-02T01:29:52.091Z,96006.77
2019-02-02T01:32:39.516Z,95994.45
2019-02-02T01:35:27.354Z,95994.04
2019-02-02T01:38:14.872Z,95993.80
2019-02-02T01:41:02.367Z,96006.09
2019-02-02T01:43:49.928Z,96005.16
2019-02-02T01:46:37.248Z,96008.77
2019-02-02T01:49:25.800Z,96016.28
2019-02-02T01:52:13.323Z,96011.27
2019-02-02T01:55:01.167Z,96006.01
2019-02-02T01:57:48.278Z,96017.83
2019-02-02T02:00:36.123Z,96013.42
2019-02-02T02:03:23.762Z,96005.23
2019-02-02T02:06:11.577Z,96021.31
2019-02-02T02:08:58.897Z,96020.27
2019-02-02T02:11:46.215Z,96013.74
2019-02-02T02:14:33.842Z,96001.85
2019-02-02T02:17:21.476Z,96013.58
2019-02-02T02:20:11.651Z,95998.20
2019-02-02T02:22:58.781Z,95982.83
2019-02-02T02:25:46.511Z,95972.86
2019-02-02T02:28:33.638Z,95968.33
2019-02-02T02:31:20.948Z,95968.50
2019-02-02T02:34:08.575Z,95967.08
2019-02-02T02:36:55.811Z,95973.01
2019-02-02T02:39:43.542Z,95975.66
2019-02-02T02:42:31.362Z,95975.95
2019-02-02T02:45:19.397Z,95980.73
2019-02-02T02:48:07.230Z,95978.02
2019-02-02T02:50:54.757Z,95977.47
2019-02-02T02:53:41.975Z,95981.09
2019-02-02T02:56:29.300Z,95985.13
2019-02-02T02:59:17.030Z,95994.77
2019-02-02T03:02:04.759Z,95997.16
2019-02-02T03:04:52.188Z,96009.52
2019-02-02T03:07:40.125Z,96011.11
2019-02-02T03:10:27.545Z,96019.30
2019-02-02T03:13:15.073Z,96021.59
2019-02-02T03:16:02.699Z,96028.59
2019-02-02T03:18:50.524Z,96016.58
2019-02-02T03:21:37.958Z,96013.47
2019-02-02T03:24:25.385Z,96005.83
2019-02-02T03:27:12.958Z,95999.20
2019-02-02T03:30:00.747Z,95992.56
2019-02-02T03:32:48.283Z,95992.37
2019-02-02T03:35:36.206Z,95984.68
2019-02-02T03:38:23.838Z,95976.47
2019-02-02T03:41:11.822Z,95973.88
2019-02-02T03:43:59.200Z,95963.53
2019-02-02T03:46:46.718Z,95961.36
2019-02-02T03:49:35.169Z,95967.61
2019-02-02T03:52:22.498Z,95970.41
2019-02-02T03:55:12.782Z,95976.45
2019-02-02T03:58:00.204Z,95974.55
2019-02-02T04:00:47.833Z,95977.81
2019-02-02T04:03:35.368Z,95985.68
2019-02-02T04:06:22.578Z,95992.70
2019-02-02T04:09:10.007Z,96011.52
2019-02-02T04:11:57.124Z,96026.14
2019-02-02T04:14:44.549Z,96025.30
2019-02-02T04:17:31.970Z,96027.23
2019-02-02T04:20:22.192Z,96025.38
2019-02-02T04:23:09.705Z,96016.14
2019-02-02T04:25:58.849Z,96025.22
2019-02-02T04:28:46.065Z,96026.65
2019-02-02T04:31:33.899Z,96025.63
2019-02-02T04:34:21.325Z,96033.34
2019-02-02T04:37:08.748Z,96030.52
2019-02-02T04:39:55.763Z,96027.97
2019-02-02T04:42:43.448Z,96011.83
2019-02-02T04:45:31.019Z,96021.63
2019-02-02T04:48:18.545Z,96034.68
2019-02-02T04:51:06.189Z,96038.48
2019-02-02T04:53:53.599Z,96040.72
2019-02-02T04:56:41.330Z,96056.16
2019-02-02T04:59:29.590Z,96046.52
2019-02-02T05:02:18.438Z,96061.26
2019-02-02T05:05:09.227Z,96077.43
2019-02-02T05:07:56.658Z,96083.55
2019-02-02T05:10:44.289Z,96075.53
2019-02-02T05:13:31.816Z,96071.05
2019-02-02T05:16:19.552Z,96071.66
2019-02-02T05:19:07.380Z,96069.86
2019-02-02T05:21:54.823Z,96061.88
2019-02-02T05:24:42.533Z,96048.06
2019-02-02T05:27:30.365Z,96058.48
2019-02-02T05:30:20.959Z,96074.04
2019-02-02T05:33:08.495Z,96083.90
2019-02-02T05:35:55.915Z,96087.80
2019-02-02T05:38:43.263Z,96082.77
2019-02-02T05:41:30.765Z,96080.72
2019-02-02T05:44:18.497Z,96066.03
2019-02-02T05:47:05.944Z,96052.48
2019-02-02T05:49:53.548Z,96054.23
2019-02-02T05:52:41.076Z,96046.13
2019-02-02T05:55:28.292Z,96050.12
2019-02-02T05:58:15.921Z,96044.34
2019-02-02T06:01:03.044Z,96061.89
2019-02-02T06:03:50.567Z,96076.47
2019-02-02T06:06:37.992Z,96088.38
2019-02-02T06:09:25.417Z,96091.75
2019-02-02T06:12:13.042Z,96080.02
2019-02-02T06:15:00.672Z,96065.38
2019-02-02T06:17:48.198Z,96069.31
2019-02-02T06:20:35.625Z,96061.01
2019-02-02T06:23:22.839Z,96072.61
2019-02-02T06:26:10.265Z,96079.88
2019-02-02T06:28:57.798Z,96088.28
2019-02-02T06:31:45.418Z,96096.20
2019-02-02T06:34:32.844Z,96097.47
2019-02-02T06:37:20.165Z,96101.06
2019-02-02T06:40:10.357Z,96113.30
2019-02-02T06:42:57.675Z,96117.84
2019-02-02T06:45:45.098Z,96121.28
2019-02-02T06:48:32.741Z,96125.86
2019-02-02T06:51:20.460Z,96124.27
2019-02-02T06:54:08.294Z,96120.58
2019-02-02T06:56:55.308Z,96121.57
2019-02-02T06:59:42.833Z,96112.98
2019-02-02T07:02:30.154Z,96105.03
2019-02-02T07:05:17.890Z,96094.55
2019-02-02T07:08:05.416Z,96097.79
2019-02-02T07:10:52.752Z,96094.87
2019-02-02T07:13:40.375Z,96083.19
2019-02-02T07:16:30.757Z,96077.88
2019-02-02T07:19:18.294Z,96074.58
2019-02-02T07:22:05.919Z,96081.13
2019-02-02T07:24:53.161Z,96078.61
2019-02-02T07:27:40.861Z,96082.72
2019-02-02T07:30:29.453Z,96086.73
2019-02-02T07:33:17.348Z,96091.52
2019-02-02T07:36:04.876Z,96116.08
2019-02-02T07:38:53.126Z,96129.28
2019-02-02T07:41:41.211Z,96136.25
2019-02-02T07:44:29.208Z,96154.17
2019-02-02T07:47:16.780Z,96161.61
2019-02-02T07:50:06.196Z,96167.97
2019-02-02T07:52:53.931Z,96187.83
2019-02-02T07:55:41.041Z,96191.30
2019-02-02T07:58:28.671Z,96199.48
2019-02-02T08:01:18.169Z,96212.11
2019-02-02T08:04:05.973Z,96227.34
2019-02-02T08:06:53.296Z,96234.16
2019-02-02T08:09:40.721Z,96238.81
2019-02-02T08:12:28.248Z,96248.02
2019-02-02T08:15:18.333Z,96243.80
2019-02-02T08:18:06.492Z,96240.33
2019-02-02T08:20:53.798Z,96234.03
2019-02-02T08:23:41.630Z,96231.34
2019-02-02T08:26:31.925Z,96234.97
2019-02-02T08:29:19.556Z,96241.70
2019-02-02T08:32:07.723Z,96242.28
2019-02-02T08:34:55.331Z,96241.91
2019-02-02T08:37:42.646Z,96246.30
2019-02-02T08:40:30.269Z,96245.05
2019-02-02T08:43:17.897Z,96250.42
2019-02-02T08:46:05.449Z,96258.38
2019-02-02T08:48:52.747Z,96259.05
2019-02-02T08:51:40.275Z,96263.44
2019-02-02T08:54:27.905Z,96264.82
2019-02-02T08:57:15.343Z,96273.44
2019-02-02T09:00:02.957Z,96276.22
2019-02-02T09:02:50.696Z,96285.69
2019-02-02T09:05:38.425Z,96280.49
2019-02-02T09:08:26.050Z,96288.06
2019-02-02T09:11:13.366Z,96296.86
2019-02-02T09:14:00.688Z,96302.52
2019-02-02T09:16:48.419Z,96310.23
2019-02-02T09:19:35.847Z,96303.88
2019-02-02T09:22:23.370Z,96307.73
2019-02-02T09:25:13.001Z,96308.84
2019-02-02T09:28:00.702Z,96316.36
2019-02-02T09:30:48.012Z,96320.92
2019-02-02T09:33:35.234Z,96308.92
2019-02-02T09:36:22.954Z,96310.05
2019-02-02T09:39:10.594Z,96308.02
2019-02-02T09:41:59.434Z,96318.79
2019-02-02T09:44:46.962Z,96312.43
2019-02-02T09:47:34.486Z,96318.47
2019-02-02T09:50:23.677Z,96318.69
2019-02-02T09:53:11.177Z,96316.08
2019-02-02T09:55:59.118Z,96317.53
2019-02-02T09:58:46.892Z,96321.52
2019-02-02T10:01:34.269Z,96321.20
2019-02-02T10:04:21.795Z,96324.25
2019-02-02T10:07:09.219Z,96320.46
2019-02-02T10:09:56.849Z,96315.80
2019-02-02T10:12:44.272Z,96325.17
2019-02-02T10:15:31.592Z,96340.22
2019-02-02T10:18:19.122Z,96344.75
2019-02-02T10:21:06.648Z,96351.66
2019-02-02T10:23:54.379Z,96364.87
2019-02-02T10:26:42.006Z,96369.32
2019-02-02T10:29:29.845Z,96368.34
2019-02-02T10:32:17.267Z,96374.15
2019-02-02T10:35:05.699Z,96382.89
2019-02-02T10:37:53.342Z,96377.02
2019-02-02T10:40:40.765Z,96377.44
2019-02-02T10:43:28.000Z,96377.55
2019-02-02T10:46:15.307Z,96377.13
2019-02-02T10:49:02.628Z,96369.73
2019-02-02T10:51:50.363Z,96357.66
2019-02-02T10:54:37.883Z,96365.28
2019-02-02T10:57:25.321Z,96371.44
2019-02-02T11:00:19.293Z,96372.37
2019-02-02T11:03:06.918Z,96374.53
2019-02-02T11:05:54.334Z,96368.20
2019-02-02T11:08:41.762Z,96359.42
2019-02-02T11:11:29.290Z,96361.53
2019-02-02T11:14:16.980Z,96375.29
2019-02-02T11:17:04.759Z,96378.13
2019-02-02T11:19:52.327Z,96378.11
2019-02-02T11:22:40.186Z,96377.62
2019-02-02T11:25:28.401Z,96371.97
2019-02-02T11:28:15.906Z,96368.48
2019-02-02T11:31:03.307Z,96364.44
2019-02-02T11:33:50.835Z,96361.47
2019-02-02T11:36:38.667Z,96363.48
2019-02-02T11:39:25.988Z,96374.48
2019-02-02T11:42:13.512Z,96229.93
2019-02-02T11:45:01.043Z,96394.14
2019-02-02T11:47:48.768Z,96388.22
2019-02-02T11:50:36.193Z,96387.84
2019-02-02T11:53:23.722Z,96386.98
2019-02-02T11:56:11.144Z,96386.88
2019-02-02T11:58:58.569Z,96385.86
2019-02-02T12:01:45.898Z,96389.20
2019-02-02T12:04:33.418Z,96390.89
2019-02-02T12:07:21.871Z,96397.16
2019-02-02T12:10:12.566Z,96397.16
2019-02-02T12:13:00.301Z,96397.98
2019-02-02T12:15:47.926Z,96399.14
2019-02-02T12:18:35.761Z,96389.94
2019-02-02T12:21:23.491Z,96401.81
2019-02-02T12:24:15.907Z,96401.09
2019-02-02T12:26:59.569Z,96402.31
2019-02-02T12:29:47.196Z,96410.25
2019-02-02T12:32:36.651Z,96412.80
2019-02-02T12:35:25.890Z,96412.73
2019-02-02T12:38:13.565Z,96413.18
2019-02-02T12:41:01.475Z,96412.84
2019-02-02T12:43:49.025Z,96402.68
2019-02-02T12:46:36.860Z,96400.41
2019-02-02T12:49:23.975Z,96398.22
2019-02-02T12:52:11.812Z,96407.45
2019-02-02T12:54:59.336Z,96408.37
2019-02-02T12:57:47.070Z,96412.47
2019-02-02T13:00:34.399Z,96421.84
2019-02-02T13:03:22.121Z,96429.81
2019-02-02T13:06:09.549Z,96431.47
2019-02-02T13:08:56.976Z,96435.03
2019-02-02T13:11:44.806Z,96439.67
2019-02-02T13:14:32.122Z,96442.81
2019-02-02T13:17:19.548Z,96445.63
2019-02-02T13:20:12.386Z,96443.23
2019-02-02T13:23:00.027Z,96442.63
2019-02-02T13:25:47.822Z,96449.41
2019-02-02T13:28:35.390Z,96455.94
2019-02-02T13:31:22.640Z,96463.20
2019-02-02T13:34:10.338Z,96466.23
2019-02-02T13:36:57.661Z,96469.44
2019-02-02T13:39:44.980Z,96477.30
2019-02-02T13:42:32.405Z,96481.25
2019-02-02T13:45:21.395Z,96486.79
2019-02-02T13:48:09.198Z,96490.00
2019-02-02T13:50:56.518Z,96497.47
2019-02-02T13:53:43.637Z,96492.56
2019-02-02T13:56:31.369Z,96499.25
2019-02-02T13:59:18.896Z,96509.03
2019-02-02T14:02:06.421Z,96511.50
2019-02-02T14:04:53.538Z,96516.27
2019-02-02T14:07:41.577Z,96513.06
2019-02-02T14:10:31.061Z,96512.50
2019-02-02T14:13:18.677Z,96517.33
2019-02-02T14:16:05.900Z,96528.69
2019-02-02T14:18:53.116Z,96527.88
2019-02-02T14:21:40.546Z,96532.92
2019-02-02T14:24:27.861Z,96546.08
2019-02-02T14:27:15.081Z,96546.81
2019-02-02T14:30:02.301Z,96547.42
2019-02-02T14:32:49.927Z,96552.75
2019-02-02T14:35:37.353Z,96560.64
2019-02-02T14:38:25.292Z,96565.80
2019-02-02T14:41:13.122Z,96573.91
2019-02-02T14:44:00.766Z,96581.74
2019-02-02T14:46:48.176Z,96588.59
2019-02-02T14:49:35.599Z,96590.21
2019-02-02T14:52:22.921Z,96594.73
2019-02-02T14:55:16.285Z,96592.50
2019-02-02T14:58:05.042Z,96600.72
2019-02-02T15:00:54.001Z,96599.52
2019-02-02T15:03:41.466Z,96604.77
2019-02-02T15:06:28.743Z,96605.47
2019-02-02T15:09:15.762Z,96612.75
2019-02-02T15:12:02.843Z,96624.50
2019-02-02T15:14:50.196Z,96628.70
2019-02-02T15:17:37.316Z,96637.16
2019-02-02T15:20:30.527Z,96638.15
2019-02-02T15:23:17.936Z,96642.98
2019-02-02T15:26:05.834Z,96643.48
2019-02-02T15:28:52.846Z,96650.97
2019-02-02T15:31:40.276Z,96657.41
2019-02-02T15:34:27.797Z,96663.00
2019-02-02T15:37:15.530Z,96664.30
2019-02-02T15:40:03.053Z,96670.16
2019-02-02T15:42:50.687Z,96669.96
2019-02-02T15:45:38.109Z,96684.89
2019-02-02T15:48:25.739Z,96689.91
2019-02-02T15:51:13.177Z,96696.92
2019-02-02T15:54:00.483Z,96713.00
2019-02-02T15:56:48.132Z,96721.27
2019-02-02T15:59:38.904Z,96724.02
2019-02-02T16:02:26.607Z,96724.19
2019-02-02T16:05:16.732Z,96726.42
2019-02-02T16:08:10.468Z,96723.44
2019-02-02T16:10:57.624Z,96724.52
2019-02-02T16:13:45.253Z,96712.73
2019-02-02T16:16:32.984Z,96727.08
2019-02-02T16:19:20.418Z,96733.28
2019-02-02T16:22:08.344Z,96735.52
2019-02-02T16:24:56.281Z,96743.34
2019-02-02T16:27:44.011Z,96752.27
2019-02-02T16:30:31.535Z,96754.59
2019-02-02T16:33:18.857Z,96755.84
2019-02-02T16:36:06.898Z,96759.93
2019-02-02T16:38:54.320Z,96759.93
2019-02-02T16:41:41.551Z,96765.84
2019-02-02T16:44:29.376Z,96774.98
2019-02-02T16:47:17.102Z,96782.86
2019-02-02T16:50:06.189Z,96787.44
2019-02-02T16:52:53.898Z,96786.94
2019-02-02T16:55:41.536Z,96809.27
2019-02-02T16:58:29.156Z,96794.72
2019-02-02T17:01:16.805Z,96795.78
2019-02-02T17:04:15.077Z,96794.38
2019-02-02T17:06:53.679Z,96798.88
2019-02-02T17:09:41.572Z,96804.58
2019-02-02T17:12:29.143Z,96810.24
2019-02-02T17:15:16.612Z,96813.63
2019-02-02T17:18:04.499Z,96811.14
2019-02-02T17:20:51.616Z,96824.13
2019-02-02T17:23:39.455Z,96830.78
2019-02-02T17:26:26.775Z,96836.81
2019-02-02T17:29:14.503Z,96839.30
2019-02-02T17:32:02.133Z,96846.63
2019-02-02T17:34:49.465Z,96853.45
2019-02-02T17:37:36.879Z,96859.97
2019-02-02T17:40:26.666Z,96872.08
2019-02-02T17:43:13.922Z,96866.85
2019-02-02T17:46:03.057Z,96872.76
2019-02-02T17:48:50.260Z,96869.34
2019-02-02T17:51:37.693Z,96870.64
2019-02-02T17:54:25.011Z,96876.35
2019-02-02T17:57:12.434Z,96879.61
2019-02-02T18:00:00.615Z,96893.95
2019-02-02T18:02:48.513Z,96899.30
2019-02-02T18:05:35.729Z,96902.39
2019-02-02T18:08:23.502Z,96907.25
2019-02-02T18:11:11.233Z,96905.95
2019-02-02T18:13:59.640Z,96913.31
2019-02-02T18:16:46.752Z,96914.91
2019-02-02T18:19:34.383Z,96916.01
2019-02-02T18:22:21.808Z,96915.88
2019-02-02T18:25:11.690Z,96909.76
2019-02-02T18:27:58.882Z,96913.99
2019-02-02T18:30:51.045Z,96911.97
2019-02-02T18:33:38.877Z,96923.97
2019-02-02T18:36:29.589Z,96934.23
2019-02-02T18:39:17.604Z,96939.39
2019-02-02T18:42:05.244Z,96947.09
2019-02-02T18:44:52.698Z,96951.09
2019-02-02T18:47:40.399Z,96952.40
2019-02-02T18:50:28.614Z,96954.39
2019-02-02T18:53:16.272Z,96946.63
2019-02-02T18:56:04.239Z,96955.10
2019-02-02T18:58:51.833Z,96961.88
2019-02-02T19:01:38.850Z,96959.86
2019-02-02T19:04:26.275Z,96958.27
2019-02-02T19:07:13.697Z,96963.22
2019-02-02T19:10:01.018Z,96960.37
2019-02-02T19:12:48.447Z,96955.62
2019-02-02T19:15:35.972Z,96961.55
2019-02-02T19:18:23.504Z,96952.03
2019-02-02T19:21:11.330Z,96959.47
2019-02-02T19:23:59.062Z,96961.23
2019-02-02T19:26:46.084Z,96955.89
2019-02-02T19:29:33.811Z,96964.36
2019-02-02T19:32:20.927Z,96968.98
2019-02-02T19:35:16.310Z,96972.27
2019-02-02T19:37:59.688Z,96975.29
2019-02-02T19:40:47.193Z,96983.37
2019-02-02T19:43:34.614Z,96988.89
2019-02-02T19:46:22.037Z,96997.06
2019-02-02T19:49:09.465Z,97007.79
2019-02-02T19:51:58.320Z,97014.72
2019-02-02T19:54:45.536Z,97017.31
2019-02-02T19:57:32.870Z,97020.39
2019-02-02T20:00:28.499Z,97023.95
2019-02-02T20:03:16.105Z,97037.63
2019-02-02T20:06:03.531Z,97044.15
2019-02-02T20:08:51.057Z,97048.13
2019-02-02T20:11:38.589Z,97049.31
2019-02-02T20:14:25.703Z,97053.63
2019-02-02T20:17:14.797Z,97064.62
2019-02-02T20:20:01.882Z,97074.42
2019-02-02T20:22:49.802Z,97081.17
2019-02-02T20:25:37.446Z,97081.33
2019-02-02T20:28:25.278Z,97075.63
2019-02-02T20:31:12.617Z,97092.84
2019-02-02T20:34:00.050Z,97100.99
2019-02-02T20:36:47.446Z,97108.95
2019-02-02T20:39:35.278Z,97114.83
2019-02-02T20:42:22.678Z,97125.39
2019-02-02T20:45:13.096Z,97119.50
2019-02-02T20:48:00.521Z,97124.56
2019-02-02T20:50:48.456Z,97123.25
2019-02-02T20:53:36.392Z,97132.89
2019-02-02T20:56:24.224Z,97134.52
2019-02-02T20:59:11.548Z,97146.88
2019-02-02T21:01:59.077Z,97148.36
2019-02-02T21:04:46.704Z,97145.89
2019-02-02T21:07:34.332Z,97155.64
2019-02-02T21:10:23.635Z,97157.77
2019-02-02T21:13:10.820Z,97158.09
2019-02-02T21:15:58.244Z,97159.53
2019-02-02T21:18:45.472Z,97150.73
2019-02-02T21:21:32.887Z,97154.16
2019-02-02T21:24:20.515Z,97161.81
2019-02-02T21:27:07.629Z,97170.45
2019-02-02T21:29:55.055Z,97182.33
2019-02-02T21:32:46.749Z,97188.53
2019-02-02T21:35:34.621Z,97192.77
2019-02-02T21:38:22.143Z,97199.14
2019-02-02T21:41:09.473Z,97206.62
2019-02-02T21:43:56.753Z,97212.66
2019-02-02T21:46:44.322Z,97218.70
2019-02-02T21:49:31.735Z,97231.25
2019-02-02T21:52:19.463Z,97234.19
2019-02-02T21:55:10.064Z,97229.27
2019-02-02T21:57:57.692Z,97230.77
2019-02-02T22:00:45.528Z,97235.16
2019-02-02T22:03:32.646Z,97241.55
2019-02-02T22:06:20.170Z,97254.58
2019-02-02T22:09:08.635Z,97248.55
2019-02-02T22:11:56.043Z,97258.31
2019-02-02T22:14:43.685Z,97257.67
2019-02-02T22:17:31.198Z,97266.62
2019-02-02T22:20:19.029Z,97265.03
2019-02-02T22:23:06.145Z,97271.69
2019-02-02T22:25:53.366Z,97267.45
2019-02-02T22:28:40.994Z,97272.05
2019-02-02T22:31:28.628Z,97278.27
2019-02-02T22:34:16.047Z,97285.56
2019-02-02T22:37:03.598Z,97290.92
2019-02-02T22:39:51.309Z,97290.44
2019-02-02T22:42:38.936Z,97300.38
2019-02-02T22:45:26.152Z,97300.05
2019-02-02T22:48:13.475Z,97300.86
2019-02-02T22:51:01.208Z,97301.68
2019-02-02T22:53:48.425Z,97307.23
2019-02-02T22:56:35.951Z,97304.63
2019-02-02T22:59:23.276Z,97304.30
2019-02-02T23:02:11.722Z,97313.76
2019-02-02T23:05:02.741Z,97314.43
2019-02-02T23:07:53.092Z,97317.67
2019-02-02T23:10:46.490Z,97335.44
2019-02-02T23:13:45.923Z,97325.49
2019-02-02T23:16:33.213Z,97321.44
2019-02-02T23:19:20.636Z,97330.91
2019-02-02T23:22:08.160Z,97335.63
2019-02-02T23:24:55.892Z,97335.63
2019-02-02T23:27:43.317Z,97339.70
2019-02-02T23:30:30.793Z,97339.36
2019-02-02T23:33:18.285Z,97344.27
2019-02-02T23:36:06.146Z,97347.10
2019-02-02T23:38:53.532Z,97354.08
2019-02-02T23:41:41.053Z,97355.55
2019-02-02T23:44:28.884Z,97367.59
2019-02-02T23:47:16.411Z,97370.37
2019-02-02T23:50:05.069Z,97386.45
2019-02-02T23:52:52.717Z,97385.63
2019-02-02T23:55:40.537Z,97395.89
2019-02-02T23:58:27.965Z,97403.42
